createdAt,value
2023-08-09T00:01:09.258Z,13.59
2023-08-09T00:03:36.015Z,13.57
2023-08-09T00:06:02.674Z,13.58
2023-08-09T00:08:29.308Z,13.55
2023-08-09T00:10:55.837Z,13.52
2023-08-09T00:13:22.360Z,13.50
2023-08-09T00:15:48.987Z,13.50
2023-08-09T00:18:15.581Z,13.47
2023-08-09T00:20:42.125Z,13.48
2023-08-09T00:23:08.748Z,13.50
2023-08-09T00:25:35.394Z,13.48
2023-08-09T00:28:02.064Z,13.45
2023-08-09T00:34:18.269Z,13.42
2023-08-09T00:36:44.854Z,13.40
2023-08-09T00:39:12.701Z,13.38
2023-08-09T00:41:39.260Z,13.37
2023-08-09T00:44:06.116Z,13.37
2023-08-09T00:46:32.780Z,13.31
2023-08-09T00:48:59.300Z,13.31
2023-08-09T00:51:25.846Z,13.30
2023-08-09T00:53:52.367Z,13.34
2023-08-09T00:56:18.934Z,13.34
2023-08-09T00:58:45.497Z,13.35
2023-08-09T01:01:12.050Z,13.33
2023-08-09T01:03:38.818Z,13.29
2023-08-09T01:06:11.413Z,13.32
2023-08-09T01:09:12.170Z,13.35
2023-08-09T01:11:54.688Z,13.31
2023-08-09T01:14:25.244Z,13.33
2023-08-09T01:16:54.676Z,13.30
2023-08-09T01:19:35.134Z,13.34
2023-08-09T01:22:31.686Z,13.28
2023-08-09T01:25:04.819Z,13.27
2023-08-09T01:27:32.316Z,13.24
2023-08-09T01:29:59.677Z,13.24
2023-08-09T01:32:26.690Z,13.27
2023-08-09T01:34:53.630Z,13.28
2023-08-09T01:37:44.458Z,13.31
2023-08-09T01:40:13.207Z,13.33
2023-08-09T01:42:40.913Z,13.32
2023-08-09T01:45:09.494Z,13.33
2023-08-09T01:47:36.985Z,13.28
2023-08-09T01:50:05.320Z,13.25
2023-08-09T01:52:31.995Z,13.28
2023-08-09T01:54:58.666Z,13.26
2023-08-09T01:57:25.273Z,13.27
2023-08-09T01:59:51.985Z,13.27
2023-08-09T02:02:18.528Z,13.29
2023-08-09T02:04:45.136Z,13.27
2023-08-09T02:07:11.709Z,13.27
2023-08-09T02:09:38.249Z,13.30
2023-08-09T02:12:04.966Z,13.30
2023-08-09T02:14:31.547Z,13.28
2023-08-09T02:16:59.329Z,13.28
2023-08-09T02:19:26.143Z,13.27
2023-08-09T02:21:52.661Z,13.25
2023-08-09T02:24:19.190Z,13.22
2023-08-09T02:26:45.765Z,13.23
2023-08-09T02:29:12.625Z,13.23
2023-08-09T02:31:39.462Z,13.25
2023-08-09T02:34:06.048Z,13.23
2023-08-09T02:36:32.613Z,13.21
2023-08-09T02:38:59.409Z,13.22
2023-08-09T02:41:25.927Z,13.22
2023-08-09T02:43:52.459Z,13.22
2023-08-09T02:46:19.109Z,13.21
2023-08-09T02:48:45.834Z,13.20
2023-08-09T02:51:12.509Z,13.20
2023-08-09T02:53:58.728Z,13.19
2023-08-09T02:56:25.337Z,13.18
2023-08-09T02:58:51.859Z,13.18
2023-08-09T03:01:18.393Z,13.19
2023-08-09T03:03:45.350Z,13.18
2023-08-09T03:06:12.147Z,13.18
2023-08-09T03:08:38.715Z,13.18
2023-08-09T03:11:05.297Z,13.20
2023-08-09T03:13:31.860Z,13.21
2023-08-09T03:15:58.468Z,13.22
2023-08-09T03:18:25.047Z,13.20
2023-08-09T03:20:51.600Z,13.19
2023-08-09T03:23:18.157Z,13.22
2023-08-09T03:25:44.773Z,13.20
2023-08-09T03:28:11.902Z,13.18
2023-08-09T03:30:39.083Z,13.18
2023-08-09T03:33:05.710Z,13.21
2023-08-09T03:35:32.355Z,13.19
2023-08-09T03:37:59.402Z,13.19
2023-08-09T03:40:26.475Z,13.19
2023-08-09T03:42:52.978Z,13.18
2023-08-09T03:45:19.721Z,13.22
2023-08-09T03:47:46.253Z,13.22
2023-08-09T03:50:12.948Z,13.21
2023-08-09T03:52:39.503Z,13.21
2023-08-09T03:55:07.491Z,13.19
2023-08-09T03:57:34.205Z,13.20
2023-08-09T04:00:00.840Z,13.22
2023-08-09T04:02:27.813Z,13.26
2023-08-09T04:04:54.443Z,13.26
2023-08-09T04:07:21.070Z,13.31
2023-08-09T04:09:47.564Z,13.32
2023-08-09T04:12:14.126Z,13.33
2023-08-09T04:14:40.690Z,13.37
2023-08-09T04:17:07.488Z,13.39
2023-08-09T04:19:34.557Z,13.40
2023-08-09T04:22:01.332Z,13.40
2023-08-09T04:24:28.817Z,13.37
2023-08-09T04:26:55.350Z,13.37
2023-08-09T04:29:21.967Z,13.39
2023-08-09T04:31:49.216Z,13.39
2023-08-09T04:34:16.393Z,13.42
2023-08-09T04:36:42.917Z,13.45
2023-08-09T04:39:10.470Z,13.47
2023-08-09T04:41:37.286Z,13.53
2023-08-09T04:44:04.070Z,13.55
2023-08-09T04:46:30.659Z,13.58
2023-08-09T04:48:58.137Z,13.64
2023-08-09T04:51:24.700Z,13.73
2023-08-09T04:53:51.190Z,13.82
2023-08-09T04:56:18.043Z,13.88
2023-08-09T04:58:44.662Z,14.03
2023-08-09T05:01:11.201Z,14.09
2023-08-09T05:03:37.965Z,14.20
2023-08-09T05:06:04.625Z,14.24
2023-08-09T05:08:31.275Z,14.28
2023-08-09T05:10:57.830Z,14.30
2023-08-09T05:13:24.381Z,14.36
2023-08-09T05:15:50.884Z,14.45
2023-08-09T05:18:17.417Z,14.42
2023-08-09T05:20:44.066Z,14.48
2023-08-09T05:23:11.943Z,14.48
2023-08-09T05:25:40.438Z,14.49
2023-08-09T05:28:07.007Z,14.51
2023-08-09T05:30:33.540Z,14.52
2023-08-09T05:33:00.146Z,14.55
2023-08-09T05:35:30.311Z,14.58
2023-08-09T05:37:57.383Z,14.61
2023-08-09T05:40:23.944Z,14.66
2023-08-09T05:42:50.486Z,14.66
2023-08-09T05:45:17.010Z,14.67
2023-08-09T05:47:43.560Z,14.80
2023-08-09T05:50:10.297Z,14.87
2023-08-09T05:52:38.776Z,14.94
2023-08-09T05:55:06.066Z,14.98
2023-08-09T05:57:32.585Z,15.09
2023-08-09T05:59:59.255Z,15.20
2023-08-09T06:02:25.904Z,15.36
2023-08-09T06:04:52.554Z,15.36
2023-08-09T06:07:19.181Z,15.46
2023-08-09T06:12:29.607Z,15.58
2023-08-09T06:14:56.212Z,15.56
2023-08-09T06:17:22.811Z,15.55
2023-08-09T06:19:49.636Z,15.53
2023-08-09T06:22:16.198Z,15.64
2023-08-09T06:24:42.803Z,15.79
2023-08-09T06:27:09.981Z,15.90
2023-08-09T06:29:36.604Z,16.01
2023-08-09T06:32:03.163Z,16.07
2023-08-09T06:34:29.721Z,16.24
2023-08-09T06:36:56.259Z,16.35
2023-08-09T06:39:22.856Z,16.40
2023-08-09T06:41:50.544Z,16.53
2023-08-09T06:44:17.538Z,16.62
2023-08-09T06:46:45.481Z,16.72
2023-08-09T06:49:12.118Z,16.85
2023-08-09T06:51:38.965Z,16.95
2023-08-09T06:54:05.934Z,16.98
2023-08-09T06:56:32.729Z,17.02
2023-08-09T06:58:59.272Z,17.01
2023-08-09T07:01:26.009Z,17.07
2023-08-09T07:03:54.235Z,17.13
2023-08-09T07:06:20.844Z,17.35
2023-08-09T07:08:47.437Z,17.37
2023-08-09T07:11:14.593Z,17.54
2023-08-09T07:13:41.401Z,17.59
2023-08-09T07:16:08.247Z,17.60
2023-08-09T07:18:35.021Z,17.81
2023-08-09T07:21:01.571Z,17.91
2023-08-09T07:23:46.590Z,17.76
2023-08-09T07:26:14.793Z,17.69
2023-08-09T07:28:41.442Z,17.69
2023-08-09T07:31:21.737Z,17.78
2023-08-09T07:33:49.245Z,18.03
2023-08-09T07:36:15.999Z,17.94
2023-08-09T07:38:42.759Z,17.89
2023-08-09T07:41:09.378Z,17.90
2023-08-09T07:43:35.903Z,17.89
2023-08-09T07:46:05.571Z,17.64
2023-08-09T07:48:33.126Z,17.39
2023-08-09T07:50:59.872Z,17.40
2023-08-09T07:53:26.474Z,17.55
2023-08-09T07:55:53.073Z,17.78
2023-08-09T07:58:19.966Z,17.89
2023-08-09T08:00:50.187Z,18.13
2023-08-09T08:03:17.618Z,18.27
2023-08-09T08:05:45.605Z,18.26
2023-08-09T08:08:15.924Z,18.07
2023-08-09T08:10:42.751Z,18.13
2023-08-09T08:13:09.413Z,18.09
2023-08-09T08:15:38.233Z,18.07
2023-08-09T08:18:08.432Z,18.12
2023-08-09T08:20:35.324Z,18.34
2023-08-09T08:23:01.972Z,18.40
2023-08-09T08:25:28.578Z,18.50
2023-08-09T08:27:55.242Z,18.58
2023-08-09T08:30:24.895Z,18.89
2023-08-09T08:32:54.901Z,18.75
2023-08-09T08:35:22.315Z,18.80
2023-08-09T08:37:50.998Z,18.96
2023-08-09T08:40:22.991Z,19.13
2023-08-09T08:42:50.143Z,19.61
2023-08-09T08:45:17.483Z,19.96
2023-08-09T08:47:45.775Z,20.50
2023-08-09T08:50:14.185Z,21.04
2023-08-09T08:52:43.663Z,21.47
2023-08-09T08:55:12.575Z,21.23
2023-08-09T08:57:39.828Z,21.74
2023-08-09T09:00:25.304Z,22.17
2023-08-09T09:02:54.578Z,22.40
2023-08-09T09:05:21.245Z,22.68
2023-08-09T09:07:57.894Z,22.26
2023-08-09T09:10:25.940Z,21.74
2023-08-09T09:12:56.972Z,21.86
2023-08-09T09:15:24.827Z,22.16
2023-08-09T09:17:52.534Z,22.42
2023-08-09T09:20:30.606Z,22.79
2023-08-09T09:22:57.652Z,22.76
2023-08-09T09:25:24.898Z,22.18
2023-08-09T09:27:58.549Z,21.11
2023-08-09T09:30:32.653Z,21.75
2023-08-09T09:33:00.843Z,22.35
2023-08-09T09:35:29.344Z,22.99
2023-08-09T09:37:57.333Z,22.99
2023-08-09T09:40:36.192Z,22.39
2023-08-09T09:43:05.433Z,22.20
2023-08-09T09:45:32.762Z,22.57
2023-08-09T09:48:04.311Z,23.22
2023-08-09T09:50:32.837Z,24.29
2023-08-09T09:53:00.306Z,25.00
2023-08-09T09:55:28.936Z,24.39
2023-08-09T09:57:56.653Z,23.02
2023-08-09T10:00:23.429Z,23.38
2023-08-09T10:02:51.664Z,23.26
2023-08-09T10:05:20.859Z,22.51
2023-08-09T10:07:53.201Z,22.03
2023-08-09T10:10:20.758Z,21.46
2023-08-09T10:12:56.898Z,21.59
2023-08-09T10:15:28.096Z,22.26
2023-08-09T10:17:59.465Z,22.15
2023-08-09T10:20:26.324Z,21.80
2023-08-09T10:22:57.514Z,21.82
2023-08-09T10:25:44.569Z,21.50
2023-08-09T10:28:11.205Z,21.79
2023-08-09T10:30:53.061Z,22.29
2023-08-09T10:33:20.503Z,23.66
2023-08-09T10:35:50.192Z,23.17
2023-08-09T10:38:19.601Z,22.40
2023-08-09T10:40:51.901Z,23.01
2023-08-09T10:43:23.709Z,23.64
2023-08-09T10:45:51.305Z,24.27
2023-08-09T10:48:20.571Z,24.36
2023-08-09T10:50:50.401Z,24.92
2023-08-09T10:53:22.794Z,25.30
2023-08-09T10:55:50.533Z,25.37
2023-08-09T10:58:17.196Z,25.54
2023-08-09T11:00:44.589Z,26.07
2023-08-09T11:03:12.210Z,25.77
2023-08-09T11:05:39.140Z,24.66
2023-08-09T11:08:18.629Z,24.22
2023-08-09T11:10:45.568Z,24.05
2023-08-09T11:13:17.125Z,23.71
2023-08-09T11:15:48.842Z,23.64
2023-08-09T11:18:16.278Z,24.13
2023-08-09T11:20:43.262Z,24.52
2023-08-09T11:23:12.753Z,25.00
2023-08-09T11:25:39.847Z,25.03
2023-08-09T11:28:07.823Z,24.76
2023-08-09T11:30:34.984Z,24.99
2023-08-09T11:33:06.715Z,25.42
2023-08-09T11:35:40.350Z,25.53
2023-08-09T11:38:11.296Z,25.74
2023-08-09T11:40:52.777Z,25.39
2023-08-09T11:43:21.375Z,25.59
2023-08-09T11:45:56.157Z,25.36
2023-08-09T11:48:33.389Z,25.95
2023-08-09T11:51:03.931Z,25.74
2023-08-09T11:53:30.679Z,26.21
2023-08-09T11:56:01.975Z,26.31
2023-08-09T11:58:28.679Z,25.15
2023-08-09T12:00:55.273Z,25.59
2023-08-09T12:03:22.654Z,25.79
2023-08-09T12:05:56.049Z,25.60
2023-08-09T12:08:39.229Z,25.90
2023-08-09T12:11:06.123Z,26.26
2023-08-09T12:13:33.489Z,26.41
2023-08-09T12:16:02.145Z,26.16
2023-08-09T12:18:28.923Z,25.89
2023-08-09T12:20:56.308Z,25.90
2023-08-09T12:23:22.850Z,25.98
2023-08-09T12:25:49.384Z,25.82
2023-08-09T12:28:15.900Z,26.12
2023-08-09T12:30:42.563Z,26.31
2023-08-09T12:33:09.858Z,26.57
2023-08-09T12:35:36.563Z,26.86
2023-08-09T12:38:03.153Z,26.28
2023-08-09T12:40:30.247Z,26.07
2023-08-09T12:42:57.533Z,26.53
2023-08-09T12:45:24.470Z,26.50
2023-08-09T12:47:51.062Z,26.37
2023-08-09T12:50:17.761Z,26.68
2023-08-09T12:52:47.323Z,26.14
2023-08-09T12:55:16.212Z,26.36
2023-08-09T12:57:46.311Z,26.15
2023-08-09T13:00:14.734Z,26.31
2023-08-09T13:02:41.477Z,25.26
2023-08-09T13:05:09.603Z,26.44
2023-08-09T13:07:36.282Z,26.86
2023-08-09T13:10:03.896Z,27.11
2023-08-09T13:12:30.724Z,26.74
2023-08-09T13:14:57.248Z,26.92
2023-08-09T13:17:23.901Z,26.68
2023-08-09T13:19:50.512Z,26.60
2023-08-09T13:22:17.081Z,26.16
2023-08-09T13:24:46.252Z,26.11
2023-08-09T13:27:13.982Z,25.98
2023-08-09T13:29:40.689Z,26.15
2023-08-09T13:32:07.874Z,26.12
2023-08-09T13:34:35.927Z,26.62
2023-08-09T13:37:02.526Z,26.40
2023-08-09T13:39:29.117Z,26.53
2023-08-09T13:41:55.673Z,26.07
2023-08-09T13:44:22.214Z,25.86
2023-08-09T13:46:48.759Z,25.81
2023-08-09T13:49:15.748Z,26.10
2023-08-09T13:51:42.311Z,25.89
2023-08-09T13:54:09.585Z,26.08
2023-08-09T13:56:36.152Z,25.93
2023-08-09T13:59:02.646Z,25.83
2023-08-09T14:01:29.194Z,26.02
2023-08-09T14:03:55.943Z,26.12
2023-08-09T14:06:22.591Z,26.30
2023-08-09T14:08:49.105Z,26.08
2023-08-09T14:11:15.667Z,26.01
2023-08-09T14:13:42.237Z,25.61
2023-08-09T14:16:08.879Z,25.81
2023-08-09T14:18:35.533Z,24.88
2023-08-09T14:21:02.249Z,25.72
2023-08-09T14:23:29.514Z,25.92
2023-08-09T14:25:56.229Z,25.67
2023-08-09T14:28:23.231Z,25.72
2023-08-09T14:30:50.240Z,25.93
2023-08-09T14:33:16.909Z,26.59
2023-08-09T14:35:43.486Z,26.55
2023-08-09T14:38:10.207Z,26.29
2023-08-09T14:40:37.170Z,26.72
2023-08-09T14:43:04.501Z,25.69
2023-08-09T14:45:31.199Z,25.43
2023-08-09T14:47:57.757Z,25.72
2023-08-09T14:50:24.342Z,26.02
2023-08-09T14:52:50.969Z,25.45
2023-08-09T14:55:18.184Z,25.96
2023-08-09T14:57:44.947Z,25.78
2023-08-09T15:00:12.421Z,26.02
2023-08-09T15:02:40.098Z,25.78
2023-08-09T15:05:09.221Z,26.01
2023-08-09T15:07:37.973Z,26.13
2023-08-09T15:10:08.018Z,26.27
2023-08-09T15:12:34.569Z,26.33
2023-08-09T15:15:01.124Z,25.83
2023-08-09T15:17:29.369Z,26.19
2023-08-09T15:19:56.448Z,25.84
2023-08-09T15:22:24.009Z,25.64
2023-08-09T15:24:51.464Z,26.55
2023-08-09T15:27:20.033Z,26.96
2023-08-09T15:29:46.967Z,26.69
2023-08-09T15:32:13.513Z,26.40
2023-08-09T15:34:40.031Z,26.44
2023-08-09T15:37:07.085Z,26.76
2023-08-09T15:39:34.615Z,26.75
2023-08-09T15:42:16.043Z,26.80
2023-08-09T15:44:44.354Z,26.24
2023-08-09T15:47:11.271Z,26.55
2023-08-09T15:49:37.999Z,27.41
2023-08-09T15:52:04.754Z,26.85
2023-08-09T15:54:31.402Z,26.96
2023-08-09T15:56:58.926Z,26.88
2023-08-09T15:59:25.585Z,26.67
2023-08-09T16:01:52.253Z,27.14
2023-08-09T16:04:19.178Z,26.21
2023-08-09T16:06:45.766Z,26.70
2023-08-09T16:09:15.801Z,25.61
2023-08-09T16:11:45.674Z,25.76
2023-08-09T16:14:12.336Z,25.88
2023-08-09T16:16:39.047Z,25.45
2023-08-09T16:19:07.579Z,25.61
2023-08-09T16:21:35.356Z,25.33
2023-08-09T16:24:02.887Z,25.48
2023-08-09T16:26:29.928Z,26.02
2023-08-09T16:28:57.232Z,24.86
2023-08-09T16:31:24.324Z,24.44
2023-08-09T16:33:51.378Z,24.23
2023-08-09T16:36:17.900Z,25.22
2023-08-09T16:38:44.557Z,25.26
2023-08-09T16:41:12.740Z,25.78
2023-08-09T16:43:39.618Z,26.05
2023-08-09T16:46:06.269Z,25.89
2023-08-09T16:48:33.360Z,25.91
2023-08-09T16:50:59.907Z,26.18
2023-08-09T16:53:26.421Z,25.96
2023-08-09T16:55:53.125Z,25.61
2023-08-09T16:58:20.137Z,25.92
2023-08-09T17:00:46.942Z,25.06
2023-08-09T17:03:15.360Z,23.98
2023-08-09T17:05:42.735Z,24.20
2023-08-09T17:08:10.888Z,23.64
2023-08-09T17:10:38.469Z,23.38
2023-08-09T17:13:05.066Z,23.61
2023-08-09T17:15:31.629Z,22.55
2023-08-09T17:17:58.236Z,22.44
2023-08-09T17:20:24.877Z,22.00
2023-08-09T17:22:52.464Z,21.50
2023-08-09T17:25:20.132Z,21.51
2023-08-09T17:27:47.129Z,21.27
2023-08-09T17:30:14.086Z,20.77
2023-08-09T17:32:40.885Z,20.44
2023-08-09T17:35:08.251Z,20.15
2023-08-09T17:37:35.007Z,20.35
2023-08-09T17:40:01.564Z,20.21
2023-08-09T17:42:28.144Z,20.13
2023-08-09T17:44:54.734Z,20.19
2023-08-09T17:47:21.494Z,19.95
2023-08-09T17:49:48.064Z,19.74
2023-08-09T17:52:14.692Z,19.99
2023-08-09T17:54:41.298Z,20.15
2023-08-09T17:57:07.872Z,19.97
2023-08-09T17:59:34.502Z,19.85
2023-08-09T18:02:01.111Z,19.95
2023-08-09T18:04:27.725Z,19.76
2023-08-09T18:06:54.366Z,19.72
2023-08-09T18:09:20.987Z,19.55
2023-08-09T18:11:47.821Z,19.58
2023-08-09T18:14:14.419Z,19.42
2023-08-09T18:16:46.604Z,19.45
2023-08-09T18:19:17.749Z,19.25
2023-08-09T18:21:44.592Z,19.23
2023-08-09T18:24:11.192Z,19.20
2023-08-09T18:26:37.724Z,19.45
2023-08-09T18:29:05.037Z,19.10
2023-08-09T18:31:31.733Z,19.04
2023-08-09T18:33:58.346Z,19.05
2023-08-09T18:36:25.061Z,19.09
2023-08-09T18:38:52.461Z,19.10
2023-08-09T18:41:19.094Z,19.10
2023-08-09T18:43:45.641Z,19.04
2023-08-09T18:46:12.284Z,19.06
2023-08-09T18:48:38.974Z,19.00
2023-08-09T18:51:05.879Z,18.77
2023-08-09T18:53:32.491Z,18.63
2023-08-09T18:55:59.081Z,18.60
2023-08-09T18:58:25.661Z,18.67
2023-08-09T19:00:52.291Z,18.65
2023-08-09T19:03:19.135Z,18.47
2023-08-09T19:05:45.862Z,18.31
2023-08-09T19:08:12.579Z,18.33
2023-08-09T19:10:39.473Z,18.23
2023-08-09T19:13:06.213Z,18.14
2023-08-09T19:15:32.854Z,18.21
2023-08-09T19:17:59.538Z,17.87
2023-08-09T19:20:26.302Z,17.83
2023-08-09T19:25:22.940Z,17.79
2023-08-09T19:27:49.593Z,17.81
2023-08-09T19:30:16.194Z,17.69
2023-08-09T19:32:42.868Z,17.61
2023-08-09T19:35:10.014Z,17.51
2023-08-09T19:37:37.952Z,17.28
2023-08-09T19:40:05.851Z,16.91
2023-08-09T19:42:34.223Z,16.88
2023-08-09T19:45:02.210Z,16.85
2023-08-09T19:47:28.701Z,16.85
2023-08-09T19:49:55.419Z,16.75
2023-08-09T19:52:21.981Z,16.71
2023-08-09T19:54:48.505Z,16.75
2023-08-09T19:57:15.040Z,16.78
2023-08-09T19:59:41.598Z,16.78
2023-08-09T20:02:08.216Z,16.72
2023-08-09T20:04:38.309Z,16.67
2023-08-09T20:07:05.525Z,16.66
2023-08-09T20:09:32.958Z,16.75
2023-08-09T20:11:59.777Z,16.76
2023-08-09T20:14:26.347Z,16.70
2023-08-09T20:16:52.906Z,16.59
2023-08-09T20:19:19.676Z,16.41
2023-08-09T20:21:46.367Z,16.34
2023-08-09T20:24:37.213Z,16.33
2023-08-09T20:27:04.426Z,16.36
2023-08-09T20:29:31.295Z,16.34
2023-08-09T20:31:57.829Z,16.29
2023-08-09T20:34:24.404Z,16.33
2023-08-09T20:36:50.973Z,16.27
2023-08-09T20:39:17.644Z,16.24
2023-08-09T20:41:44.217Z,16.22
2023-08-09T20:44:10.731Z,16.12
2023-08-09T20:46:37.484Z,16.00
2023-08-09T20:49:04.572Z,15.97
2023-08-09T20:51:31.284Z,15.93
2023-08-09T20:53:58.214Z,15.96
2023-08-09T20:56:24.804Z,15.91
2023-08-09T20:58:51.364Z,15.83
2023-08-09T21:01:17.894Z,15.82
2023-08-09T21:03:44.404Z,15.81
2023-08-09T21:06:11.464Z,15.79
2023-08-09T21:08:38.412Z,15.75
2023-08-09T21:11:04.930Z,15.73
2023-08-09T21:13:31.646Z,15.67
2023-08-09T21:15:58.278Z,15.66
2023-08-09T21:18:24.882Z,15.61
2023-08-09T21:20:51.434Z,15.40
2023-08-09T21:23:18.039Z,15.37
2023-08-09T21:25:44.578Z,15.32
2023-08-09T21:28:12.451Z,15.37
2023-08-09T21:30:39.763Z,15.42
2023-08-09T21:33:08.959Z,15.42
2023-08-09T21:35:35.718Z,15.32
2023-08-09T21:38:02.358Z,15.22
2023-08-09T21:40:29.221Z,15.20
2023-08-09T21:42:55.802Z,15.17
2023-08-09T21:45:22.375Z,15.18
2023-08-09T21:47:49.023Z,15.14
2023-08-09T21:50:15.616Z,15.06
2023-08-09T21:52:42.174Z,14.98
2023-08-09T21:55:08.855Z,14.97
2023-08-09T21:57:35.391Z,14.95
2023-08-09T22:00:02.008Z,14.98
2023-08-09T22:02:28.645Z,14.95
2023-08-09T22:04:55.212Z,14.93
2023-08-09T22:07:21.827Z,14.85
2023-08-09T22:09:48.458Z,14.85
2023-08-09T22:12:15.100Z,14.88
2023-08-09T22:14:41.651Z,14.82
2023-08-09T22:17:08.245Z,14.77
2023-08-09T22:19:34.764Z,14.74
2023-08-09T22:22:13.609Z,14.72
2023-08-09T22:24:41.252Z,14.74
2023-08-09T22:27:07.772Z,14.80
2023-08-09T22:29:34.405Z,14.83
2023-08-09T22:32:01.163Z,14.81
2023-08-09T22:34:27.704Z,14.69
2023-08-09T22:36:54.244Z,14.68
2023-08-09T22:39:20.755Z,14.68
2023-08-09T22:41:47.361Z,14.74
2023-08-09T22:44:13.874Z,14.78
2023-08-09T22:46:40.456Z,14.81
2023-08-09T22:49:07.133Z,14.82
2023-08-09T22:51:34.767Z,14.77
2023-08-09T22:54:01.269Z,14.73
2023-08-09T22:56:29.063Z,14.71
2023-08-09T22:58:55.649Z,14.71
2023-08-09T23:01:22.269Z,14.70
2023-08-09T23:03:48.906Z,14.67
2023-08-09T23:06:15.488Z,14.66
2023-08-09T23:08:42.045Z,14.59
2023-08-09T23:11:09.394Z,14.59
2023-08-09T23:13:35.952Z,14.63
2023-08-09T23:16:02.701Z,14.67
2023-08-09T23:18:29.516Z,14.65
2023-08-09T23:20:56.031Z,14.69
2023-08-09T23:23:22.804Z,14.72
2023-08-09T23:25:49.544Z,14.75
2023-08-09T23:28:16.086Z,14.80
2023-08-09T23:30:42.766Z,14.73
2023-08-09T23:33:09.433Z,14.63
2023-08-09T23:35:35.995Z,14.56
2023-08-09T23:38:02.576Z,14.54
2023-08-09T23:40:29.228Z,14.52
2023-08-09T23:42:56.087Z,14.50
2023-08-09T23:45:22.732Z,14.53
2023-08-09T23:47:52.057Z,14.54
2023-08-09T23:50:19.905Z,14.56
2023-08-09T23:52:46.470Z,14.58
2023-08-09T23:55:13.395Z,14.63
2023-08-09T23:57:39.902Z,14.63
